sensor_id;sensor_type;location;lat;lon;timestamp;pressure;altitude;pressure_sealevel;temperature;humidity
62402;BME280;48440;51.224;22.506;2023-03-12T00:02:20;98091.56;;;0.18;67.70
62402;BME280;48440;51.224;22.506;2023-03-12T00:04:46;98099.78;;;0.16;67.36
62402;BME280;48440;51.224;22.506;2023-03-12T00:07:11;98108.34;;;0.25;67.58
62402;BME280;48440;51.224;22.506;2023-03-12T00:09:38;98104.66;;;0.26;66.91
62402;BME280;48440;51.224;22.506;2023-03-12T00:12:04;98104.91;;;0.18;67.46
62402;BME280;48440;51.224;22.506;2023-03-12T00:14:30;98105.28;;;0.21;67.38
62402;BME280;48440;51.224;22.506;2023-03-12T00:16:56;98111.88;;;0.19;67.86
62402;BME280;48440;51.224;22.506;2023-03-12T00:19:21;98103.66;;;0.20;67.18
62402;BME280;48440;51.224;22.506;2023-03-12T00:21:47;98111.91;;;0.12;68.21
62402;BME280;48440;51.224;22.506;2023-03-12T00:24:12;98103.69;;;0.14;68.40
62402;BME280;48440;51.224;22.506;2023-03-12T00:26:38;98107.34;;;0.19;68.24
62402;BME280;48440;51.224;22.506;2023-03-12T00:29:04;98108.81;;;0.15;68.04
62402;BME280;48440;51.224;22.506;2023-03-12T00:31:31;98109.25;;;0.12;68.65
62402;BME280;48440;51.224;22.506;2023-03-12T00:33:58;98107.41;;;0.13;68.21
62402;BME280;48440;51.224;22.506;2023-03-12T00:36:26;98111.09;;;0.12;68.62
62402;BME280;48440;51.224;22.506;2023-03-12T00:38:53;98117.41;;;0.17;68.04
62402;BME280;48440;51.224;22.506;2023-03-12T00:41:19;98116.19;;;0.20;68.29
62402;BME280;48440;51.224;22.506;2023-03-12T00:43:45;98116.78;;;0.22;67.54
62402;BME280;48440;51.224;22.506;2023-03-12T00:46:11;98117.63;;;0.16;68.56
62402;BME280;48440;51.224;22.506;2023-03-12T00:48:37;98117.63;;;0.16;67.86
62402;BME280;48440;51.224;22.506;2023-03-12T00:51:05;98115.16;;;0.21;67.93
62402;BME280;48440;51.224;22.506;2023-03-12T00:53:31;98117.81;;;0.21;67.83
62402;BME280;48440;51.224;22.506;2023-03-12T00:55:56;98119.06;;;0.18;68.31
62402;BME280;48440;51.224;22.506;2023-03-12T00:58:22;98125.66;;;0.16;67.82
62402;BME280;48440;51.224;22.506;2023-03-12T01:00:48;98130.59;;;0.12;68.53
62402;BME280;48440;51.224;22.506;2023-03-12T01:03:13;98133.44;;;0.17;67.76
62402;BME280;48440;51.224;22.506;2023-03-12T01:05:39;98141.91;;;0.08;68.35
62402;BME280;48440;51.224;22.506;2023-03-12T01:08:08;98138.03;;;0.04;68.18
62402;BME280;48440;51.224;22.506;2023-03-12T01:10:35;98141.09;;;0.07;68.68
62402;BME280;48440;51.224;22.506;2023-03-12T01:13:01;98143.13;;;0.12;68.64
62402;BME280;48440;51.224;22.506;2023-03-12T01:15:27;98147.00;;;0.16;68.17
62402;BME280;48440;51.224;22.506;2023-03-12T01:17:52;98139.16;;;0.21;68.33
62402;BME280;48440;51.224;22.506;2023-03-12T01:20:18;98133.41;;;0.24;68.26
62402;BME280;48440;51.224;22.506;2023-03-12T01:22:43;98146.06;;;0.28;68.45
62402;BME280;48440;51.224;22.506;2023-03-12T01:25:10;98148.94;;;0.27;68.14
62402;BME280;48440;51.224;22.506;2023-03-12T01:27:35;98136.88;;;0.24;68.22
62402;BME280;48440;51.224;22.506;2023-03-12T01:30:02;98135.25;;;0.23;68.01
62402;BME280;48440;51.224;22.506;2023-03-12T01:32:28;98144.09;;;0.17;67.98
62402;BME280;48440;51.224;22.506;2023-03-12T01:34:53;98140.84;;;0.15;68.01
62402;BME280;48440;51.224;22.506;2023-03-12T01:37:19;98140.22;;;0.13;67.89
62402;BME280;48440;51.224;22.506;2023-03-12T01:39:45;98133.50;;;0.04;67.95
62402;BME280;48440;51.224;22.506;2023-03-12T01:42:10;98142.34;;;0.05;68.21
62402;BME280;48440;51.224;22.506;2023-03-12T01:44:54;98143.97;;;0.06;68.21
62402;BME280;48440;51.224;22.506;2023-03-12T01:47:20;98144.84;;;-0.01;68.36
62402;BME280;48440;51.224;22.506;2023-03-12T01:49:48;98144.56;;;0.08;68.03
62402;BME280;48440;51.224;22.506;2023-03-12T01:52:23;98139.94;;;-0.04;67.87
62402;BME280;48440;51.224;22.506;2023-03-12T01:57:22;98145.88;;;-0.02;67.94
62402;BME280;48440;51.224;22.506;2023-03-12T01:59:55;98144.47;;;-0.04;68.04
62402;BME280;48440;51.224;22.506;2023-03-12T02:02:23;98147.56;;;-0.07;67.80
62402;BME280;48440;51.224;22.506;2023-03-12T02:05:10;98146.56;;;-0.13;67.74
62402;BME280;48440;51.224;22.506;2023-03-12T02:07:37;98150.84;;;-0.12;68.02
62402;BME280;48440;51.224;22.506;2023-03-12T02:10:04;98163.59;;;-0.14;68.09
62402;BME280;48440;51.224;22.506;2023-03-12T02:12:30;98158.03;;;-0.12;67.57
62402;BME280;48440;51.224;22.506;2023-03-12T02:14:56;98164.41;;;-0.13;67.42
62402;BME280;48440;51.224;22.506;2023-03-12T02:17:21;98170.78;;;-0.21;68.30
62402;BME280;48440;51.224;22.506;2023-03-12T02:19:56;98172.63;;;-0.21;67.82
62402;BME280;48440;51.224;22.506;2023-03-12T02:22:25;98182.53;;;-0.28;68.16
62402;BME280;48440;51.224;22.506;2023-03-12T02:27:21;98179.22;;;-0.24;68.32
62402;BME280;48440;51.224;22.506;2023-03-12T02:29:50;98168.53;;;-0.24;68.31
62402;BME280;48440;51.224;22.506;2023-03-12T02:32:28;98180.47;;;-0.26;68.47
62402;BME280;48440;51.224;22.506;2023-03-12T02:34:58;98184.19;;;-0.27;68.48
62402;BME280;48440;51.224;22.506;2023-03-12T02:37:24;98178.84;;;-0.27;68.32
62402;BME280;48440;51.224;22.506;2023-03-12T02:39:55;98181.75;;;-0.36;68.33
62402;BME280;48440;51.224;22.506;2023-03-12T02:42:24;98183.34;;;-0.28;68.56
62402;BME280;48440;51.224;22.506;2023-03-12T02:44:50;98174.34;;;-0.33;68.47
62402;BME280;48440;51.224;22.506;2023-03-12T02:47:15;98185.84;;;-0.33;69.05
62402;BME280;48440;51.224;22.506;2023-03-12T02:49:41;98184.41;;;-0.36;69.02
62402;BME280;48440;51.224;22.506;2023-03-12T02:52:06;98189.94;;;-0.37;68.82
62402;BME280;48440;51.224;22.506;2023-03-12T02:54:32;98185.66;;;-0.38;68.62
62402;BME280;48440;51.224;22.506;2023-03-12T02:56:58;98195.31;;;-0.44;69.05
62402;BME280;48440;51.224;22.506;2023-03-12T02:59:23;98203.72;;;-0.47;68.99
62402;BME280;48440;51.224;22.506;2023-03-12T03:01:54;98200.63;;;-0.44;69.28
62402;BME280;48440;51.224;22.506;2023-03-12T03:04:20;98203.09;;;-0.42;69.36
62402;BME280;48440;51.224;22.506;2023-03-12T03:06:45;98203.94;;;-0.48;69.15
62402;BME280;48440;51.224;22.506;2023-03-12T03:09:12;98204.53;;;-0.40;69.29
62402;BME280;48440;51.224;22.506;2023-03-12T03:11:38;98201.03;;;-0.40;69.77
62402;BME280;48440;51.224;22.506;2023-03-12T03:14:03;98214.97;;;-0.38;68.88
62402;BME280;48440;51.224;22.506;2023-03-12T03:16:31;98219.06;;;-0.36;69.73
62402;BME280;48440;51.224;22.506;2023-03-12T03:18:56;98225.63;;;-0.38;69.52
62402;BME280;48440;51.224;22.506;2023-03-12T03:21:21;98219.69;;;-0.40;69.60
62402;BME280;48440;51.224;22.506;2023-03-12T03:23:48;98222.97;;;-0.38;69.72
62402;BME280;48440;51.224;22.506;2023-03-12T03:26:15;98219.50;;;-0.39;69.66
62402;BME280;48440;51.224;22.506;2023-03-12T03:28:42;98216.81;;;-0.39;69.79
62402;BME280;48440;51.224;22.506;2023-03-12T03:31:08;98224.22;;;-0.41;69.93
62402;BME280;48440;51.224;22.506;2023-03-12T03:33:35;98213.13;;;-0.38;69.90
62402;BME280;48440;51.224;22.506;2023-03-12T03:36:02;98217.63;;;-0.38;69.58
62402;BME280;48440;51.224;22.506;2023-03-12T03:38:29;98214.75;;;-0.37;69.73
62402;BME280;48440;51.224;22.506;2023-03-12T03:40:55;98204.31;;;-0.38;70.13
62402;BME280;48440;51.224;22.506;2023-03-12T03:43:21;98210.25;;;-0.36;69.84
62402;BME280;48440;51.224;22.506;2023-03-12T03:45:47;98212.50;;;-0.40;70.03
62402;BME280;48440;51.224;22.506;2023-03-12T03:48:13;98218.66;;;-0.39;70.00
62402;BME280;48440;51.224;22.506;2023-03-12T03:50:39;98220.31;;;-0.45;70.43
62402;BME280;48440;51.224;22.506;2023-03-12T03:53:06;98222.59;;;-0.48;70.65
62402;BME280;48440;51.224;22.506;2023-03-12T03:55:39;98208.63;;;-0.44;70.32
62402;BME280;48440;51.224;22.506;2023-03-12T03:58:05;98216.63;;;-0.44;70.81
62402;BME280;48440;51.224;22.506;2023-03-12T04:00:31;98224.00;;;-0.46;71.10
62402;BME280;48440;51.224;22.506;2023-03-12T04:02:57;98221.53;;;-0.41;70.82
62402;BME280;48440;51.224;22.506;2023-03-12T04:05:22;98230.56;;;-0.42;70.98
62402;BME280;48440;51.224;22.506;2023-03-12T04:07:51;98227.28;;;-0.37;70.76
62402;BME280;48440;51.224;22.506;2023-03-12T04:10:19;98226.47;;;-0.38;70.72
62402;BME280;48440;51.224;22.506;2023-03-12T04:12:44;98227.06;;;-0.36;71.23
62402;BME280;48440;51.224;22.506;2023-03-12T04:15:10;98228.50;;;-0.33;70.89
62402;BME280;48440;51.224;22.506;2023-03-12T04:17:35;98232.59;;;-0.30;70.79
62402;BME280;48440;51.224;22.506;2023-03-12T04:20:01;98220.69;;;-0.28;71.05
62402;BME280;48440;51.224;22.506;2023-03-12T04:22:26;98225.81;;;-0.26;70.55
62402;BME280;48440;51.224;22.506;2023-03-12T04:24:51;98224.38;;;-0.29;70.92
62402;BME280;48440;51.224;22.506;2023-03-12T04:27:17;98234.84;;;-0.34;71.12
62402;BME280;48440;51.224;22.506;2023-03-12T04:29:42;98233.56;;;-0.25;70.67
62402;BME280;48440;51.224;22.506;2023-03-12T04:32:09;98237.25;;;-0.26;70.90
62402;BME280;48440;51.224;22.506;2023-03-12T04:34:34;98231.94;;;-0.26;70.80
62402;BME280;48440;51.224;22.506;2023-03-12T04:37:00;98240.75;;;-0.25;71.00
62402;BME280;48440;51.224;22.506;2023-03-12T04:39:27;98244.28;;;-0.31;71.55
62402;BME280;48440;51.224;22.506;2023-03-12T04:41:53;98248.13;;;-0.21;70.54
62402;BME280;48440;51.224;22.506;2023-03-12T04:44:18;98242.38;;;-0.24;71.13
62402;BME280;48440;51.224;22.506;2023-03-12T04:46:44;98239.56;;;-0.29;71.15
62402;BME280;48440;51.224;22.506;2023-03-12T04:49:09;98237.88;;;-0.24;71.26
62402;BME280;48440;51.224;22.506;2023-03-12T04:51:35;98241.56;;;-0.25;71.17
62402;BME280;48440;51.224;22.506;2023-03-12T04:54:00;98232.75;;;-0.25;71.17
62402;BME280;48440;51.224;22.506;2023-03-12T04:56:26;98235.41;;;-0.25;71.12
62402;BME280;48440;51.224;22.506;2023-03-12T04:58:52;98238.75;;;-0.30;70.98
62402;BME280;48440;51.224;22.506;2023-03-12T05:01:26;98248.16;;;-0.27;71.47
62402;BME280;48440;51.224;22.506;2023-03-12T05:03:53;98252.69;;;-0.28;71.03
62402;BME280;48440;51.224;22.506;2023-03-12T05:06:19;98242.59;;;-0.26;71.01
62402;BME280;48440;51.224;22.506;2023-03-12T05:08:46;98244.50;;;-0.33;72.01
62402;BME280;48440;51.224;22.506;2023-03-12T05:11:12;98236.06;;;-0.30;71.85
62402;BME280;48440;51.224;22.506;2023-03-12T05:13:37;98252.91;;;-0.29;71.83
62402;BME280;48440;51.224;22.506;2023-03-12T05:16:03;98251.66;;;-0.33;72.42
62402;BME280;48440;51.224;22.506;2023-03-12T05:18:29;98253.72;;;-0.29;71.80
62402;BME280;48440;51.224;22.506;2023-03-12T05:21:02;98255.16;;;-0.26;71.34
62402;BME280;48440;51.224;22.506;2023-03-12T05:23:29;98281.34;;;-0.23;71.61
62402;BME280;48440;51.224;22.506;2023-03-12T05:25:54;98278.31;;;-0.27;71.93
62402;BME280;48440;51.224;22.506;2023-03-12T05:28:20;98273.34;;;-0.23;71.82
62402;BME280;48440;51.224;22.506;2023-03-12T05:30:47;98273.56;;;-0.18;71.95
62402;BME280;48440;51.224;22.506;2023-03-12T05:33:12;98285.25;;;-0.26;72.47
62402;BME280;48440;51.224;22.506;2023-03-12T05:35:37;98285.66;;;-0.22;72.65
62402;BME280;48440;51.224;22.506;2023-03-12T05:38:03;98293.44;;;-0.14;72.22
62402;BME280;48440;51.224;22.506;2023-03-12T05:40:29;98295.91;;;-0.13;72.03
62402;BME280;48440;51.224;22.506;2023-03-12T05:42:54;98293.63;;;-0.09;71.68
62402;BME280;48440;51.224;22.506;2023-03-12T05:45:19;98294.69;;;-0.17;72.27
62402;BME280;48440;51.224;22.506;2023-03-12T05:47:45;98286.47;;;-0.15;72.56
62402;BME280;48440;51.224;22.506;2023-03-12T05:50:10;98299.59;;;-0.14;72.58
62402;BME280;48440;51.224;22.506;2023-03-12T05:52:36;98289.53;;;-0.05;72.12
62402;BME280;48440;51.224;22.506;2023-03-12T05:55:01;98297.88;;;0.05;71.74
62402;BME280;48440;51.224;22.506;2023-03-12T05:57:27;98294.19;;;0.06;71.48
62402;BME280;48440;51.224;22.506;2023-03-12T05:59:52;98289.72;;;0.00;71.82
62402;BME280;48440;51.224;22.506;2023-03-12T06:02:18;98306.50;;;0.00;72.29
62402;BME280;48440;51.224;22.506;2023-03-12T06:04:44;98307.94;;;0.03;72.10
62402;BME280;48440;51.224;22.506;2023-03-12T06:07:09;98321.25;;;0.10;71.70
62402;BME280;48440;51.224;22.506;2023-03-12T06:09:35;98325.97;;;0.08;71.79
62402;BME280;48440;51.224;22.506;2023-03-12T06:12:00;98335.00;;;0.07;71.57
62402;BME280;48440;51.224;22.506;2023-03-12T06:14:26;98323.72;;;0.05;72.09
62402;BME280;48440;51.224;22.506;2023-03-12T06:16:51;98333.97;;;0.08;71.73
62402;BME280;48440;51.224;22.506;2023-03-12T06:19:17;98325.78;;;0.09;72.05
62402;BME280;48440;51.224;22.506;2023-03-12T06:21:43;98336.84;;;0.13;71.88
62402;BME280;48440;51.224;22.506;2023-03-12T06:24:08;98338.09;;;0.10;71.91
62402;BME280;48440;51.224;22.506;2023-03-12T06:26:34;98325.16;;;0.14;72.52
62402;BME280;48440;51.224;22.506;2023-03-12T06:28:59;98329.25;;;0.16;71.73
62402;BME280;48440;51.224;22.506;2023-03-12T06:31:25;98338.28;;;0.15;72.11
62402;BME280;48440;51.224;22.506;2023-03-12T06:33:50;98341.97;;;0.14;71.57
62402;BME280;48440;51.224;22.506;2023-03-12T06:36:18;98341.97;;;0.14;71.91
62402;BME280;48440;51.224;22.506;2023-03-12T06:38:43;98337.25;;;0.16;72.48
62402;BME280;48440;51.224;22.506;2023-03-12T06:41:15;98338.69;;;0.19;72.00
62402;BME280;48440;51.224;22.506;2023-03-12T06:43:41;98334.97;;;0.20;71.59
62402;BME280;48440;51.224;22.506;2023-03-12T06:46:10;98338.06;;;0.23;71.40
62402;BME280;48440;51.224;22.506;2023-03-12T06:48:36;98337.44;;;0.21;72.28
62402;BME280;48440;51.224;22.506;2023-03-12T06:51:08;98338.81;;;0.30;71.41
62402;BME280;48440;51.224;22.506;2023-03-12T06:53:34;98336.19;;;0.24;72.16
62402;BME280;48440;51.224;22.506;2023-03-12T06:56:00;98345.03;;;0.24;72.41
62402;BME280;48440;51.224;22.506;2023-03-12T06:58:26;98345.84;;;0.25;72.20
62402;BME280;48440;51.224;22.506;2023-03-12T07:00:52;98343.94;;;0.32;72.37
62402;BME280;48440;51.224;22.506;2023-03-12T07:03:18;98342.88;;;0.40;71.09
62402;BME280;48440;51.224;22.506;2023-03-12T07:05:44;98344.34;;;0.36;71.87
62402;BME280;48440;51.224;22.506;2023-03-12T07:08:11;98348.03;;;0.41;72.17
62402;BME280;48440;51.224;22.506;2023-03-12T07:10:36;98351.28;;;0.43;72.03
62402;BME280;48440;51.224;22.506;2023-03-12T07:13:02;98336.50;;;0.47;72.15
62402;BME280;48440;51.224;22.506;2023-03-12T07:15:27;98339.16;;;0.47;71.79
62402;BME280;48440;51.224;22.506;2023-03-12T07:17:52;98343.88;;;0.52;71.75
62402;BME280;48440;51.224;22.506;2023-03-12T07:20:18;98362.59;;;0.45;71.43
62402;BME280;48440;51.224;22.506;2023-03-12T07:22:44;98360.09;;;0.50;71.11
62402;BME280;48440;51.224;22.506;2023-03-12T07:25:09;98345.72;;;0.51;71.50
62402;BME280;48440;51.224;22.506;2023-03-12T07:27:35;98357.25;;;0.45;71.96
62402;BME280;48440;51.224;22.506;2023-03-12T07:30:00;98353.28;;;0.54;71.36
62402;BME280;48440;51.224;22.506;2023-03-12T07:32:26;98347.91;;;0.61;70.93
62402;BME280;48440;51.224;22.506;2023-03-12T07:34:51;98361.25;;;0.61;70.95
62402;BME280;48440;51.224;22.506;2023-03-12T07:37:17;98363.13;;;0.60;70.70
62402;BME280;48440;51.224;22.506;2023-03-12T07:39:42;98363.50;;;0.64;71.27
62402;BME280;48440;51.224;22.506;2023-03-12T07:42:09;98371.91;;;0.67;70.56
62402;BME280;48440;51.224;22.506;2023-03-12T07:44:37;98368.44;;;0.60;70.90
62402;BME280;48440;51.224;22.506;2023-03-12T07:47:02;98379.56;;;0.57;71.28
62402;BME280;48440;51.224;22.506;2023-03-12T07:49:28;98370.91;;;0.62;71.56
62402;BME280;48440;51.224;22.506;2023-03-12T07:51:53;98370.69;;;0.63;71.04
62402;BME280;48440;51.224;22.506;2023-03-12T07:54:19;98367.22;;;0.63;71.56
62402;BME280;48440;51.224;22.506;2023-03-12T07:56:44;98372.94;;;0.66;71.64
62402;BME280;48440;51.224;22.506;2023-03-12T07:59:10;98370.88;;;0.68;71.19
62402;BME280;48440;51.224;22.506;2023-03-12T08:01:35;98370.28;;;0.66;71.71
62402;BME280;48440;51.224;22.506;2023-03-12T08:04:01;98370.47;;;0.72;71.67
62402;BME280;48440;51.224;22.506;2023-03-12T08:06:28;98380.84;;;0.86;70.89
62402;BME280;48440;51.224;22.506;2023-03-12T08:08:53;98376.28;;;0.93;70.54
62402;BME280;48440;51.224;22.506;2023-03-12T08:11:19;98374.22;;;0.95;70.76
62402;BME280;48440;51.224;22.506;2023-03-12T08:13:45;98377.06;;;1.00;70.53
62402;BME280;48440;51.224;22.506;2023-03-12T08:16:10;98370.84;;;1.07;70.72
62402;BME280;48440;51.224;22.506;2023-03-12T08:18:36;98376.72;;;1.22;70.14
62402;BME280;48440;51.224;22.506;2023-03-12T08:21:02;98362.13;;;1.43;69.79
62402;BME280;48440;51.224;22.506;2023-03-12T08:23:28;98364.41;;;1.64;69.38
62402;BME280;48440;51.224;22.506;2023-03-12T08:25:54;98368.84;;;1.77;68.65
62402;BME280;48440;51.224;22.506;2023-03-12T08:28:20;98363.00;;;2.04;68.23
62402;BME280;48440;51.224;22.506;2023-03-12T08:30:48;98372.03;;;2.40;67.03
62402;BME280;48440;51.224;22.506;2023-03-12T08:33:14;98363.19;;;2.58;65.91
62402;BME280;48440;51.224;22.506;2023-03-12T08:35:39;98370.06;;;2.65;65.43
62402;BME280;48440;51.224;22.506;2023-03-12T08:38:05;98376.53;;;3.59;64.26
62402;BME280;48440;51.224;22.506;2023-03-12T08:40:31;98384.56;;;3.71;63.38
62402;BME280;48440;51.224;22.506;2023-03-12T08:42:58;98386.19;;;3.60;62.63
62402;BME280;48440;51.224;22.506;2023-03-12T08:45:24;98381.50;;;3.32;63.95
62402;BME280;48440;51.224;22.506;2023-03-12T08:47:49;98387.38;;;3.11;63.04
62402;BME280;48440;51.224;22.506;2023-03-12T08:50:15;98397.81;;;2.71;64.69
62402;BME280;48440;51.224;22.506;2023-03-12T08:52:44;98411.53;;;2.45;66.65
62402;BME280;48440;51.224;22.506;2023-03-12T08:55:10;98410.88;;;2.31;66.75
62402;BME280;48440;51.224;22.506;2023-03-12T08:57:36;98411.75;;;2.07;67.31
62402;BME280;48440;51.224;22.506;2023-03-12T09:00:02;98417.22;;;1.93;66.71
62402;BME280;48440;51.224;22.506;2023-03-12T09:02:30;98421.56;;;1.69;68.30
62402;BME280;48440;51.224;22.506;2023-03-12T09:04:55;98422.06;;;1.60;68.47
62402;BME280;48440;51.224;22.506;2023-03-12T09:07:21;98428.72;;;1.51;68.27
62402;BME280;48440;51.224;22.506;2023-03-12T09:09:47;98436.00;;;1.37;68.48
62402;BME280;48440;51.224;22.506;2023-03-12T09:12:13;98430.34;;;1.27;69.19
62402;BME280;48440;51.224;22.506;2023-03-12T09:14:38;98442.06;;;1.26;68.86
62402;BME280;48440;51.224;22.506;2023-03-12T09:17:04;98440.59;;;1.30;69.31
62402;BME280;48440;51.224;22.506;2023-03-12T09:19:29;98443.63;;;1.33;69.40
62402;BME280;48440;51.224;22.506;2023-03-12T09:21:55;98443.44;;;1.35;68.86
62402;BME280;48440;51.224;22.506;2023-03-12T09:24:22;98446.91;;;1.35;69.26
62402;BME280;48440;51.224;22.506;2023-03-12T09:26:47;98442.56;;;1.41;68.77
62402;BME280;48440;51.224;22.506;2023-03-12T09:29:12;98437.00;;;1.43;68.20
62402;BME280;48440;51.224;22.506;2023-03-12T09:31:38;98449.94;;;1.46;68.21
62402;BME280;48440;51.224;22.506;2023-03-12T09:34:03;98446.06;;;1.66;68.14
62402;BME280;48440;51.224;22.506;2023-03-12T09:36:29;98446.50;;;1.88;67.28
62402;BME280;48440;51.224;22.506;2023-03-12T09:38:54;98444.41;;;2.15;66.21
62402;BME280;48440;51.224;22.506;2023-03-12T09:41:24;98454.13;;;2.10;66.02
62402;BME280;48440;51.224;22.506;2023-03-12T09:43:54;98448.19;;;2.08;66.27
62402;BME280;48440;51.224;22.506;2023-03-12T09:46:25;98449.06;;;2.01;67.17
62402;BME280;48440;51.224;22.506;2023-03-12T09:48:55;98454.53;;;1.88;67.36
62402;BME280;48440;51.224;22.506;2023-03-12T09:51:46;98469.06;;;1.74;67.75
62402;BME280;48440;51.224;22.506;2023-03-12T09:54:38;98468.34;;;1.60;68.17
62402;BME280;48440;51.224;22.506;2023-03-12T09:57:11;98459.94;;;1.57;68.62
62402;BME280;48440;51.224;22.506;2023-03-12T09:59:37;98467.13;;;1.56;69.24
62402;BME280;48440;51.224;22.506;2023-03-12T10:02:12;98464.41;;;1.63;68.58
62402;BME280;48440;51.224;22.506;2023-03-12T10:15:24;98454.94;;;3.31;64.08
62402;BME280;48440;51.224;22.506;2023-03-12T10:27:34;98483.31;;;5.59;54.59
62402;BME280;48440;51.224;22.506;2023-03-12T10:30:13;98486.31;;;4.89;56.48
62402;BME280;48440;51.224;22.506;2023-03-12T10:33:11;98484.97;;;4.28;57.23
62402;BME280;48440;51.224;22.506;2023-03-12T10:35:52;98480.84;;;3.79;59.02
62402;BME280;48440;51.224;22.506;2023-03-12T10:38:38;98466.16;;;3.40;60.53
62402;BME280;48440;51.224;22.506;2023-03-12T10:44:24;98463.59;;;3.45;61.56
62402;BME280;48440;51.224;22.506;2023-03-12T10:50:35;98476.19;;;4.21;58.97
62402;BME280;48440;51.224;22.506;2023-03-12T10:53:23;98480.13;;;4.77;58.22
62402;BME280;48440;51.224;22.506;2023-03-12T10:56:12;98465.56;;;4.61;57.55
62402;BME280;48440;51.224;22.506;2023-03-12T10:58:48;98472.91;;;4.54;55.65
62402;BME280;48440;51.224;22.506;2023-03-12T11:04:37;98493.47;;;4.25;55.08
62402;BME280;48440;51.224;22.506;2023-03-12T11:09:40;98488.59;;;3.57;56.37
62402;BME280;48440;51.224;22.506;2023-03-12T11:12:40;98498.75;;;3.55;58.22
62402;BME280;48440;51.224;22.506;2023-03-12T11:15:40;98498.28;;;4.23;57.12
62402;BME280;48440;51.224;22.506;2023-03-12T11:18:23;98502.25;;;4.32;54.76
62402;BME280;48440;51.224;22.506;2023-03-12T11:20:52;98507.97;;;4.48;53.67
62402;BME280;48440;51.224;22.506;2023-03-12T11:33:35;98505.50;;;4.23;53.84
62402;BME280;48440;51.224;22.506;2023-03-12T11:58:58;98523.72;;;4.21;52.70
62402;BME280;48440;51.224;22.506;2023-03-12T12:14:59;98545.72;;;3.76;53.46
62402;BME280;48440;51.224;22.506;2023-03-12T12:17:49;98548.13;;;3.66;53.16
62402;BME280;48440;51.224;22.506;2023-03-12T12:26:12;98555.44;;;3.89;52.21
62402;BME280;48440;51.224;22.506;2023-03-12T12:28:56;98565.00;;;3.96;52.08
62402;BME280;48440;51.224;22.506;2023-03-12T12:31:49;98565.47;;;3.93;52.51
62402;BME280;48440;51.224;22.506;2023-03-12T12:34:49;98562.31;;;3.96;52.89
62402;BME280;48440;51.224;22.506;2023-03-12T12:37:23;98577.16;;;3.87;51.98
62402;BME280;48440;51.224;22.506;2023-03-12T12:45:25;98580.88;;;3.86;51.05
62402;BME280;48440;51.224;22.506;2023-03-12T12:47:56;98572.00;;;3.86;51.37
62402;BME280;48440;51.224;22.506;2023-03-12T12:50:26;98574.88;;;3.72;52.20
62402;BME280;48440;51.224;22.506;2023-03-12T12:53:04;98581.63;;;3.75;51.89
62402;BME280;48440;51.224;22.506;2023-03-12T12:55:45;98578.72;;;3.77;51.70
62402;BME280;48440;51.224;22.506;2023-03-12T13:01:18;98588.09;;;3.86;51.14
62402;BME280;48440;51.224;22.506;2023-03-12T13:03:45;98590.88;;;3.79;50.82
62402;BME280;48440;51.224;22.506;2023-03-12T13:06:11;98585.22;;;3.69;50.10
62402;BME280;48440;51.224;22.506;2023-03-12T13:13:46;98596.59;;;3.53;50.13
62402;BME280;48440;51.224;22.506;2023-03-12T13:16:32;98592.50;;;3.50;51.32
62402;BME280;48440;51.224;22.506;2023-03-12T13:19:00;98610.69;;;3.48;51.94
62402;BME280;48440;51.224;22.506;2023-03-12T13:21:38;98608.44;;;3.45;51.45
62402;BME280;48440;51.224;22.506;2023-03-12T13:27:28;98602.94;;;3.40;50.74
62402;BME280;48440;51.224;22.506;2023-03-12T13:29:54;98608.41;;;3.33;51.16
62402;BME280;48440;51.224;22.506;2023-03-12T13:32:35;98607.81;;;3.31;51.62
62402;BME280;48440;51.224;22.506;2023-03-12T13:43:15;98618.38;;;3.45;52.88
62402;BME280;48440;51.224;22.506;2023-03-12T13:46:19;98622.00;;;3.50;53.27
62402;BME280;48440;51.224;22.506;2023-03-12T13:48:49;98623.66;;;3.51;52.65
62402;BME280;48440;51.224;22.506;2023-03-12T13:51:22;98625.66;;;3.56;52.96
62402;BME280;48440;51.224;22.506;2023-03-12T13:53:54;98624.41;;;3.58;52.84
62402;BME280;48440;51.224;22.506;2023-03-12T13:56:28;98622.75;;;3.57;52.22
62402;BME280;48440;51.224;22.506;2023-03-12T13:59:12;98629.25;;;3.50;51.34
62402;BME280;48440;51.224;22.506;2023-03-12T14:01:42;98627.38;;;3.50;51.41
62402;BME280;48440;51.224;22.506;2023-03-12T14:04:14;98629.47;;;3.48;51.10
62402;BME280;48440;51.224;22.506;2023-03-12T14:15:31;98635.88;;;3.47;50.88
62402;BME280;48440;51.224;22.506;2023-03-12T14:18:08;98641.91;;;3.42;51.08
62402;BME280;48440;51.224;22.506;2023-03-12T14:20:38;98638.41;;;3.42;51.32
62402;BME280;48440;51.224;22.506;2023-03-12T14:23:08;98644.47;;;3.37;50.71
62402;BME280;48440;51.224;22.506;2023-03-12T14:25:58;98655.66;;;3.34;51.00
62402;BME280;48440;51.224;22.506;2023-03-12T14:28:25;98660.78;;;3.36;51.39
62402;BME280;48440;51.224;22.506;2023-03-12T14:33:32;98663.31;;;3.31;52.01
62402;BME280;48440;51.224;22.506;2023-03-12T14:36:43;98662.50;;;3.30;52.12
62402;BME280;48440;51.224;22.506;2023-03-12T14:39:35;98672.34;;;3.36;52.01
62402;BME280;48440;51.224;22.506;2023-03-12T14:42:05;98679.56;;;3.36;51.15
62402;BME280;48440;51.224;22.506;2023-03-12T14:44:34;98671.72;;;3.34;51.94
62402;BME280;48440;51.224;22.506;2023-03-12T14:47:04;98674.63;;;3.33;52.15
62402;BME280;48440;51.224;22.506;2023-03-12T14:49:44;98680.44;;;3.30;52.24
62402;BME280;48440;51.224;22.506;2023-03-12T14:52:19;98686.25;;;3.27;52.06
62402;BME280;48440;51.224;22.506;2023-03-12T14:55:12;98685.66;;;3.25;52.23
62402;BME280;48440;51.224;22.506;2023-03-12T14:57:39;98689.00;;;3.20;51.07
62402;BME280;48440;51.224;22.506;2023-03-12T15:00:06;98693.38;;;3.15;51.51
62402;BME280;48440;51.224;22.506;2023-03-12T15:02:41;98688.00;;;3.15;51.14
62402;BME280;48440;51.224;22.506;2023-03-12T15:05:18;98694.63;;;3.12;50.97
62402;BME280;48440;51.224;22.506;2023-03-12T15:07:45;98695.09;;;3.09;51.25
62402;BME280;48440;51.224;22.506;2023-03-12T15:10:24;98693.84;;;3.12;51.34
62402;BME280;48440;51.224;22.506;2023-03-12T15:12:54;98698.38;;;3.11;51.40
62402;BME280;48440;51.224;22.506;2023-03-12T15:15:47;98696.41;;;3.00;51.78